Terminal Aerodrome Forecast
Issued by NWS

Home | Current Version | Previous Version | Text Only | Print | Product List | Glossary On
Versions: 1 2 3 4 5 6 7 8 9 10 11 12 13 14 15 16 17 18 19 20 21 22 23 24 25 26 27 28 29 30 31 32
000
FTPA31 PHFO 300500
TAFOGG
TAF
PHOG 300532Z 3006/3106 04008KT P6SM FEW030 SCT050
     FM302000 02015KT P6SM SCT050
     FM310500 02008KT P6SM SCT050
      AMD LTD TO VIS AND WIND 3009/3016=

USA.gov is the U.S. government's official web portal to all federal, state and local government web resources and services.